createdAt,value
2018-08-24T00:02:14.045Z,7.73
2018-08-24T00:04:42.034Z,7.17
2018-08-24T00:07:10.034Z,7.30
2018-08-24T00:09:37.958Z,7.50
2018-08-24T00:12:06.115Z,7.90
2018-08-24T00:14:34.103Z,7.73
2018-08-24T00:17:02.049Z,6.50
2018-08-24T00:19:30.048Z,7.03
2018-08-24T00:21:58.059Z,7.20
2018-08-24T00:24:26.027Z,6.77
2018-08-24T00:26:54.005Z,6.87
2018-08-24T00:29:21.989Z,7.10
2018-08-24T00:31:50.010Z,7.30
2018-08-24T00:34:18.005Z,7.10
2018-08-24T00:36:45.932Z,6.53
2018-08-24T00:39:17.322Z,7.53
2018-08-24T00:41:45.337Z,7.60
2018-08-24T00:44:13.363Z,7.13
2018-08-24T00:46:41.322Z,6.63
2018-08-24T00:49:09.316Z,7.37
2018-08-24T00:51:37.297Z,6.83
2018-08-24T00:54:05.269Z,7.40
2018-08-24T00:56:33.565Z,7.10
2018-08-24T00:59:01.531Z,8.57
2018-08-24T01:01:29.539Z,8.07
2018-08-24T01:03:57.539Z,8.37
2018-08-24T01:06:25.496Z,8.60
2018-08-24T01:08:53.459Z,8.30
2018-08-24T01:11:25.699Z,8.30
2018-08-24T01:13:53.929Z,8.27
2018-08-24T01:16:27.477Z,8.53
2018-08-24T01:18:55.443Z,9.10
2018-08-24T01:21:23.413Z,10.33
2018-08-24T01:23:51.644Z,8.97
2018-08-24T01:26:24.237Z,9.33
2018-08-24T01:28:52.531Z,8.73
2018-08-24T01:31:20.582Z,8.33
2018-08-24T01:33:48.966Z,9.53
2018-08-24T01:36:16.977Z,9.20
2018-08-24T01:38:44.941Z,10.10
2018-08-24T01:41:12.949Z,9.30
2018-08-24T01:43:40.907Z,9.97
2018-08-24T01:46:11.975Z,10.70
2018-08-24T01:48:40.785Z,12.90
2018-08-24T01:51:08.764Z,11.57
2018-08-24T01:53:36.732Z,11.70
2018-08-24T01:56:04.735Z,13.10
2018-08-24T01:58:32.712Z,14.93
2018-08-24T02:01:00.669Z,17.73
2018-08-24T02:03:28.644Z,18.90
2018-08-24T02:06:02.713Z,19.63
2018-08-24T02:08:30.676Z,21.30
2018-08-24T02:10:58.629Z,20.17
2018-08-24T02:13:32.150Z,22.60
2018-08-24T02:16:00.135Z,23.57
2018-08-24T02:18:33.504Z,25.80
2018-08-24T02:21:07.006Z,32.80
2018-08-24T02:23:35.235Z,34.40
2018-08-24T02:26:03.164Z,34.70
2018-08-24T02:28:31.129Z,36.83
2018-08-24T02:31:01.119Z,38.40
2018-08-24T02:33:33.709Z,40.27
2018-08-24T02:36:01.651Z,44.70
2018-08-24T02:38:29.646Z,49.70
2018-08-24T02:40:57.628Z,54.77
2018-08-24T02:43:25.771Z,59.93
2018-08-24T02:45:53.785Z,65.33
2018-08-24T02:48:21.748Z,65.13
2018-08-24T02:50:49.999Z,68.00
2018-08-24T02:53:17.981Z,63.17
2018-08-24T02:55:45.932Z,58.13
2018-08-24T02:58:13.919Z,51.93
2018-08-24T03:00:41.885Z,48.43
2018-08-24T03:03:09.957Z,47.77
2018-08-24T03:05:38.096Z,46.27
2018-08-24T03:08:05.984Z,41.70
2018-08-24T03:10:33.937Z,42.23
2018-08-24T03:13:01.962Z,39.80
2018-08-24T03:15:29.937Z,38.27
2018-08-24T03:17:57.886Z,37.17
2018-08-24T03:20:26.281Z,37.03
2018-08-24T03:22:54.832Z,36.57
2018-08-24T03:25:22.799Z,37.13
2018-08-24T03:27:50.814Z,35.23
2018-08-24T03:30:18.891Z,37.23
2018-08-24T03:32:46.940Z,38.30
2018-08-24T03:35:14.905Z,35.33
2018-08-24T03:37:42.880Z,35.83
2018-08-24T03:40:10.868Z,35.20
2018-08-24T03:42:38.839Z,34.13
2018-08-24T03:45:06.837Z,34.63
2018-08-24T03:47:34.849Z,33.73
2018-08-24T03:50:02.838Z,33.00
2018-08-24T03:52:30.831Z,32.33
2018-08-24T03:54:58.821Z,31.70
2018-08-24T03:57:33.606Z,31.10
2018-08-24T04:00:01.568Z,29.70
2018-08-24T04:02:29.535Z,29.43
2018-08-24T04:04:57.527Z,28.40
2018-08-24T04:07:25.535Z,28.07
2018-08-24T04:09:53.523Z,25.23
2018-08-24T04:12:24.896Z,24.33
2018-08-24T04:14:52.906Z,23.60
2018-08-24T04:17:26.334Z,22.93
2018-08-24T04:19:54.316Z,22.77
2018-08-24T04:22:22.277Z,21.10
2018-08-24T04:24:50.264Z,21.33
2018-08-24T04:27:18.228Z,20.47
2018-08-24T04:29:46.204Z,22.03
2018-08-24T04:32:14.191Z,21.73
2018-08-24T04:34:43.248Z,23.43
2018-08-24T04:37:11.218Z,21.00
2018-08-24T04:39:39.192Z,20.87
2018-08-24T04:42:07.181Z,21.50
2018-08-24T04:44:35.165Z,20.57
2018-08-24T04:47:03.839Z,20.20
2018-08-24T04:49:31.826Z,19.77
2018-08-24T04:51:59.821Z,19.87
2018-08-24T04:54:27.813Z,19.40
2018-08-24T04:56:55.809Z,18.80
2018-08-24T04:59:23.917Z,17.97
2018-08-24T05:01:51.744Z,18.67
2018-08-24T05:04:19.792Z,18.20
2018-08-24T05:06:47.797Z,18.23
2018-08-24T05:09:15.772Z,18.87
2018-08-24T05:11:43.760Z,18.40
2018-08-24T05:14:11.773Z,18.83
2018-08-24T05:16:39.755Z,17.53
2018-08-24T05:19:07.726Z,17.10
2018-08-24T05:21:35.701Z,17.30
2018-08-24T05:24:03.772Z,17.30
2018-08-24T05:26:31.766Z,17.63
2018-08-24T05:28:59.762Z,17.80
2018-08-24T05:31:27.727Z,18.43
2018-08-24T05:33:55.686Z,18.27
2018-08-24T05:36:23.715Z,17.97
2018-08-24T05:38:51.678Z,18.03
2018-08-24T05:41:19.687Z,18.97
2018-08-24T05:43:51.379Z,19.33
2018-08-24T05:46:19.370Z,18.73
2018-08-24T05:48:47.486Z,19.53
2018-08-24T05:51:15.469Z,19.23
2018-08-24T05:53:43.440Z,20.00
2018-08-24T05:56:11.424Z,19.33
2018-08-24T05:58:39.435Z,19.43
2018-08-24T06:01:07.463Z,19.47
2018-08-24T06:03:35.428Z,21.70
2018-08-24T06:06:04.222Z,20.50
2018-08-24T06:08:32.789Z,19.37
2018-08-24T06:11:01.891Z,20.33
2018-08-24T06:13:29.920Z,19.63
2018-08-24T06:15:57.967Z,20.67
2018-08-24T06:18:26.024Z,19.70
2018-08-24T06:20:54.010Z,21.77
2018-08-24T06:23:22.000Z,20.53
2018-08-24T06:25:50.018Z,20.43
2018-08-24T06:28:18.014Z,19.30
2018-08-24T06:30:46.035Z,20.07
2018-08-24T06:33:14.021Z,20.17
2018-08-24T06:35:41.977Z,20.37
2018-08-24T06:38:09.964Z,19.30
2018-08-24T06:40:37.954Z,19.93
2018-08-24T06:43:05.963Z,19.07
2018-08-24T06:45:34.108Z,20.23
2018-08-24T06:48:02.152Z,19.60
2018-08-24T06:50:30.127Z,19.23
2018-08-24T06:52:58.809Z,18.80
2018-08-24T06:55:26.905Z,18.27
2018-08-24T06:57:55.098Z,18.57
2018-08-24T07:00:28.755Z,18.87
2018-08-24T07:02:56.869Z,16.57
2018-08-24T07:05:25.077Z,14.83
2018-08-24T07:07:53.300Z,14.80
2018-08-24T07:10:21.415Z,15.43
2018-08-24T07:12:49.452Z,15.93
2018-08-24T07:15:17.421Z,13.90
2018-08-24T07:17:50.966Z,13.37
2018-08-24T07:20:18.959Z,15.77
2018-08-24T07:22:47.024Z,14.13
2018-08-24T07:25:15.060Z,12.50
2018-08-24T07:27:42.991Z,11.90
2018-08-24T07:30:10.964Z,10.63
2018-08-24T07:32:39.108Z,9.57
2018-08-24T07:35:07.120Z,9.70
2018-08-24T07:37:35.084Z,10.13
2018-08-24T07:40:13.969Z,10.80
2018-08-24T07:42:41.947Z,10.77
2018-08-24T07:45:09.942Z,10.23
2018-08-24T07:47:38.019Z,9.90
2018-08-24T07:50:06.049Z,10.70
2018-08-24T07:52:34.020Z,10.10
2018-08-24T07:55:02.018Z,10.07
2018-08-24T07:57:30.021Z,9.60
2018-08-24T07:59:58.003Z,8.87
2018-08-24T08:02:31.427Z,11.47
2018-08-24T08:04:59.424Z,12.37
2018-08-24T08:07:27.414Z,11.90
2018-08-24T08:09:55.419Z,12.70
2018-08-24T08:12:23.430Z,11.73
2018-08-24T08:14:57.348Z,11.80
2018-08-24T08:17:25.339Z,11.37
2018-08-24T08:19:53.318Z,11.27
2018-08-24T08:22:21.316Z,11.10
2018-08-24T08:24:49.487Z,10.97
2018-08-24T08:27:17.387Z,12.50
2018-08-24T08:29:50.969Z,12.97
2018-08-24T08:32:18.960Z,12.77
2018-08-24T08:34:53.097Z,13.60
2018-08-24T08:37:22.222Z,12.63
2018-08-24T08:39:53.059Z,12.77
2018-08-24T08:42:21.907Z,12.13
2018-08-24T08:44:56.650Z,12.00
2018-08-24T08:47:24.637Z,11.60
2018-08-24T08:49:52.636Z,12.33
2018-08-24T08:52:20.653Z,11.10
2018-08-24T08:54:48.740Z,11.50
2018-08-24T08:57:16.736Z,10.97
2018-08-24T08:59:44.886Z,10.67
2018-08-24T09:02:16.316Z,9.73
2018-08-24T09:04:44.304Z,10.27
2018-08-24T09:07:12.337Z,8.53
2018-08-24T09:09:40.335Z,8.17
2018-08-24T09:12:09.738Z,7.73
2018-08-24T09:14:37.779Z,7.80
2018-08-24T09:17:11.101Z,6.37
2018-08-24T09:20:46.458Z,5.00
2018-08-24T09:23:19.877Z,4.57
2018-08-24T09:25:53.524Z,4.77
2018-08-24T09:28:27.064Z,4.80
2018-08-24T09:30:58.925Z,4.53
2018-08-24T09:33:26.901Z,4.47
2018-08-24T09:35:54.896Z,4.20
2018-08-24T09:38:22.923Z,4.03
2018-08-24T09:40:56.463Z,3.77
2018-08-24T09:43:29.900Z,3.83
2018-08-24T09:45:57.876Z,3.93
2018-08-24T09:48:26.751Z,3.33
2018-08-24T09:51:00.374Z,3.37
2018-08-24T09:53:33.780Z,3.83
2018-08-24T09:56:01.759Z,3.30
2018-08-24T09:58:30.112Z,3.77
2018-08-24T10:01:03.984Z,3.80
2018-08-24T10:03:37.597Z,3.83
2018-08-24T10:06:11.389Z,3.67
2018-08-24T10:08:44.908Z,4.23
2018-08-24T10:11:13.337Z,4.20
2018-08-24T10:13:41.321Z,3.90
2018-08-24T10:16:09.275Z,5.37
2018-08-24T10:18:37.244Z,4.70
2018-08-24T10:21:05.503Z,4.70
2018-08-24T10:23:33.510Z,4.90
2018-08-24T10:26:01.846Z,4.20
2018-08-24T10:28:30.040Z,4.40
2018-08-24T10:30:58.048Z,4.00
2018-08-24T10:33:25.994Z,3.73
2018-08-24T10:35:54.360Z,4.57
2018-08-24T10:38:22.447Z,5.07
2018-08-24T10:40:50.507Z,4.67
2018-08-24T10:43:18.508Z,4.83
2018-08-24T10:45:46.484Z,5.03
2018-08-24T10:48:14.546Z,5.17
2018-08-24T10:50:42.537Z,4.80
2018-08-24T10:53:10.511Z,5.17
2018-08-24T10:55:38.492Z,4.10
2018-08-24T10:58:06.449Z,4.27
2018-08-24T11:00:34.445Z,4.53
2018-08-24T11:03:02.422Z,5.00
2018-08-24T11:05:30.498Z,4.77
2018-08-24T11:07:58.378Z,5.37
2018-08-24T11:10:26.349Z,4.90
2018-08-24T11:12:54.724Z,4.40
2018-08-24T11:15:22.731Z,4.20
2018-08-24T11:17:56.498Z,4.13
2018-08-24T11:20:24.470Z,4.10
2018-08-24T11:22:52.486Z,4.60
2018-08-24T11:25:20.473Z,3.60
2018-08-24T11:27:48.427Z,3.27
2018-08-24T11:30:16.510Z,3.20
2018-08-24T11:32:44.479Z,3.33
2018-08-24T11:35:12.469Z,3.30
2018-08-24T11:37:40.520Z,2.97
2018-08-24T11:40:08.563Z,3.20
2018-08-24T11:42:36.542Z,4.10
2018-08-24T11:45:04.621Z,3.47
2018-08-24T11:47:32.621Z,3.47
2018-08-24T11:50:00.610Z,3.87
2018-08-24T11:52:28.575Z,3.80
2018-08-24T11:54:56.552Z,3.80
2018-08-24T11:57:24.523Z,4.03
2018-08-24T11:59:52.562Z,3.93
2018-08-24T12:02:20.771Z,6.17
2018-08-24T12:04:48.725Z,3.87
2018-08-24T12:07:16.764Z,6.80
2018-08-24T12:09:44.733Z,3.83
2018-08-24T12:12:12.820Z,4.17
2018-08-24T12:14:40.710Z,4.63
2018-08-24T12:17:10.470Z,4.07
2018-08-24T12:19:38.463Z,4.30
2018-08-24T12:22:06.450Z,4.13
2018-08-24T12:24:34.440Z,3.83
2018-08-24T12:27:02.465Z,4.20
2018-08-24T12:29:30.402Z,4.10
2018-08-24T12:31:58.353Z,4.60
2018-08-24T12:34:26.349Z,4.87
2018-08-24T12:36:54.337Z,4.80
2018-08-24T12:39:22.451Z,5.43
2018-08-24T12:41:50.403Z,5.67
2018-08-24T12:44:18.385Z,5.43
2018-08-24T12:46:46.364Z,6.77
2018-08-24T12:49:14.403Z,5.80
2018-08-24T12:51:42.378Z,6.07
2018-08-24T12:54:10.363Z,6.00
2018-08-24T12:56:38.454Z,5.57
2018-08-24T12:59:06.410Z,5.60
2018-08-24T13:01:34.412Z,6.77
2018-08-24T13:04:02.801Z,5.70
2018-08-24T13:06:30.768Z,5.87
2018-08-24T13:08:58.764Z,6.70
2018-08-24T13:11:26.756Z,5.43
2018-08-24T13:13:54.743Z,5.57
2018-08-24T13:16:22.715Z,5.40
2018-08-24T13:18:50.675Z,5.93
2018-08-24T13:21:22.276Z,6.10
2018-08-24T13:23:50.255Z,5.57
2018-08-24T13:26:18.203Z,5.90
2018-08-24T13:28:46.168Z,7.60
2018-08-24T13:31:14.145Z,5.93
2018-08-24T13:33:42.168Z,5.93
2018-08-24T13:36:10.132Z,5.60
2018-08-24T13:38:38.131Z,6.23
2018-08-24T13:41:06.095Z,6.40
2018-08-24T13:43:34.075Z,5.80
2018-08-24T13:46:02.365Z,6.23
2018-08-24T13:48:30.318Z,6.23
2018-08-24T13:50:58.335Z,6.27
2018-08-24T13:53:26.338Z,6.20
2018-08-24T13:55:54.321Z,6.83
2018-08-24T13:58:22.290Z,6.80
2018-08-24T14:00:50.260Z,6.40
2018-08-24T14:03:18.227Z,5.83
2018-08-24T14:05:46.207Z,6.20
2018-08-24T14:08:14.191Z,6.43
2018-08-24T14:10:42.163Z,6.50
2018-08-24T14:13:10.592Z,6.37
2018-08-24T14:15:38.483Z,6.70
2018-08-24T14:18:06.436Z,6.30
2018-08-24T14:20:34.452Z,5.97
2018-08-24T14:23:02.419Z,6.27
2018-08-24T14:25:30.467Z,5.80
2018-08-24T14:27:58.664Z,5.87
2018-08-24T14:30:26.710Z,6.40
2018-08-24T14:32:54.683Z,6.27
2018-08-24T14:35:22.657Z,6.50
2018-08-24T14:37:50.644Z,6.60
2018-08-24T14:40:18.616Z,6.33
2018-08-24T14:42:46.572Z,6.70
2018-08-24T14:45:14.543Z,6.03
2018-08-24T14:47:42.536Z,6.60
2018-08-24T14:50:10.515Z,6.10
2018-08-24T14:52:38.507Z,5.97
2018-08-24T14:55:06.467Z,6.37
2018-08-24T14:57:34.439Z,6.57
2018-08-24T15:00:02.450Z,6.47
2018-08-24T15:02:30.404Z,6.33
2018-08-24T15:04:58.385Z,6.27
2018-08-24T15:07:26.339Z,6.77
2018-08-24T15:09:54.659Z,6.17
2018-08-24T15:12:22.620Z,6.20
2018-08-24T15:14:50.601Z,6.60
2018-08-24T15:17:18.808Z,5.60
2018-08-24T15:19:47.040Z,5.93
2018-08-24T15:22:14.998Z,6.20
2018-08-24T15:24:42.968Z,5.83
2018-08-24T15:27:10.948Z,5.83
2018-08-24T15:29:38.997Z,6.07
2018-08-24T15:32:06.938Z,6.33
2018-08-24T15:34:34.914Z,5.93
2018-08-24T15:37:02.874Z,6.40
2018-08-24T15:39:30.864Z,6.60
2018-08-24T15:41:58.858Z,6.67
2018-08-24T15:44:27.150Z,5.57
2018-08-24T15:46:55.114Z,5.90
2018-08-24T15:49:23.115Z,8.67
2018-08-24T15:51:51.092Z,6.03
2018-08-24T15:54:19.077Z,6.33
2018-08-24T15:56:47.109Z,6.00
2018-08-24T15:59:15.058Z,5.93
2018-08-24T16:01:43.072Z,5.57
2018-08-24T16:04:11.072Z,6.73
2018-08-24T16:06:39.015Z,6.73
2018-08-24T16:09:12.079Z,6.37
2018-08-24T16:11:40.230Z,6.30
2018-08-24T16:14:08.525Z,6.30
2018-08-24T16:16:36.585Z,5.90
2018-08-24T16:19:04.478Z,6.30
2018-08-24T16:21:32.449Z,6.30
2018-08-24T16:24:00.563Z,6.53
2018-08-24T16:26:28.525Z,6.90
2018-08-24T16:28:56.479Z,6.33
2018-08-24T16:31:24.468Z,6.53
2018-08-24T16:33:52.993Z,6.87
2018-08-24T16:36:20.960Z,6.40
2018-08-24T16:38:48.994Z,6.07
2018-08-24T16:41:16.980Z,6.53
2018-08-24T16:43:44.932Z,6.40
2018-08-24T16:46:12.913Z,6.20
2018-08-24T16:48:40.879Z,7.87
2018-08-24T16:51:09.046Z,6.47
2018-08-24T16:53:37.019Z,6.20
2018-08-24T16:56:05.001Z,6.30
2018-08-24T16:58:32.991Z,6.07
2018-08-24T17:01:01.000Z,6.63
2018-08-24T17:03:29.145Z,6.47
2018-08-24T17:05:57.349Z,5.80
2018-08-24T17:08:25.510Z,5.90
2018-08-24T17:10:53.596Z,5.63
2018-08-24T17:13:21.589Z,6.27
2018-08-24T17:15:49.568Z,5.00
2018-08-24T17:18:17.523Z,5.27
2018-08-24T17:20:45.499Z,4.77
2018-08-24T17:23:13.486Z,4.33
2018-08-24T17:25:41.543Z,5.10
2018-08-24T17:28:09.654Z,5.10
2018-08-24T17:30:37.618Z,4.93
2018-08-24T17:33:05.926Z,4.50
2018-08-24T17:35:33.957Z,5.40
2018-08-24T17:38:02.062Z,4.87
2018-08-24T17:40:30.036Z,4.37
2018-08-24T17:42:57.998Z,3.97
2018-08-24T17:45:25.948Z,4.20
2018-08-24T17:47:53.928Z,3.80
2018-08-24T17:50:21.869Z,4.00
2018-08-24T17:52:50.324Z,3.80
2018-08-24T17:55:18.280Z,3.63
2018-08-24T17:57:46.255Z,3.43
2018-08-24T18:00:14.204Z,3.50
2018-08-24T18:02:42.147Z,3.50
2018-08-24T18:05:10.454Z,4.13
2018-08-24T18:07:38.439Z,3.53
2018-08-24T18:10:06.382Z,3.30
2018-08-24T18:12:34.648Z,3.60
2018-08-24T18:15:02.845Z,3.40
2018-08-24T18:17:30.601Z,3.60
2018-08-24T18:19:58.588Z,4.03
2018-08-24T18:22:26.575Z,4.20
2018-08-24T18:24:54.553Z,4.20
2018-08-24T18:27:22.529Z,4.67
2018-08-24T18:29:51.052Z,4.73
2018-08-24T18:32:19.004Z,4.03
2018-08-24T18:34:46.987Z,4.80
2018-08-24T18:37:14.996Z,5.23
2018-08-24T18:39:42.939Z,4.87
2018-08-24T18:42:10.943Z,4.20
2018-08-24T18:44:38.918Z,4.90
2018-08-24T18:47:06.884Z,4.67
2018-08-24T18:49:34.806Z,4.70
2018-08-24T18:52:02.796Z,4.20
2018-08-24T18:54:30.760Z,4.50
2018-08-24T18:59:32.245Z,4.23
2018-08-24T19:02:00.261Z,4.07
2018-08-24T19:04:28.249Z,5.03
2018-08-24T19:06:56.240Z,4.23
2018-08-24T19:09:24.198Z,4.13
2018-08-24T19:11:57.505Z,3.70
2018-08-24T19:14:25.469Z,4.53
2018-08-24T19:16:53.418Z,4.17
2018-08-24T19:19:26.938Z,4.00
2018-08-24T19:21:59.007Z,3.97
2018-08-24T19:24:26.985Z,4.27
2018-08-24T19:26:54.952Z,4.20
2018-08-24T19:29:28.319Z,3.70
2018-08-24T19:31:56.368Z,3.37
2018-08-24T19:34:24.262Z,4.17
2018-08-24T19:36:52.240Z,4.00
2018-08-24T19:39:20.205Z,4.57
2018-08-24T19:41:53.650Z,3.60
2018-08-24T19:44:21.605Z,4.07
2018-08-24T19:46:49.539Z,3.53
2018-08-24T19:49:19.615Z,3.57
2018-08-24T19:51:47.545Z,3.63
2018-08-24T19:54:16.164Z,5.07
2018-08-24T19:56:44.130Z,4.47
2018-08-24T19:59:13.608Z,3.43
2018-08-24T20:01:42.464Z,3.93
2018-08-24T20:04:11.546Z,3.83
2018-08-24T20:06:45.110Z,4.27
2018-08-24T20:09:18.638Z,4.60
2018-08-24T20:11:48.039Z,4.60
2018-08-24T20:14:16.681Z,3.67
2018-08-24T20:16:50.053Z,4.13
2018-08-24T20:19:18.051Z,3.70
2018-08-24T20:21:46.005Z,3.80
2018-08-24T20:24:14.029Z,4.03
2018-08-24T20:26:42.264Z,3.53
2018-08-24T20:29:10.218Z,3.33
2018-08-24T20:31:38.168Z,3.50
2018-08-24T20:34:06.160Z,4.37
2018-08-24T20:36:34.182Z,4.20
2018-08-24T20:39:02.102Z,3.40
2018-08-24T20:41:30.069Z,3.80
2018-08-24T20:43:58.026Z,4.10
2018-08-24T20:46:25.975Z,3.80
2018-08-24T20:48:54.068Z,3.70
2018-08-24T20:51:22.016Z,4.20
2018-08-24T20:53:49.981Z,3.90
2018-08-24T20:56:17.969Z,3.40
2018-08-24T20:58:45.922Z,3.53
2018-08-24T21:01:13.874Z,3.47
2018-08-24T21:03:41.840Z,3.30
2018-08-24T21:06:09.842Z,3.47
2018-08-24T21:08:37.784Z,3.30
2018-08-24T21:11:05.797Z,3.10
2018-08-24T21:13:34.139Z,3.80
2018-08-24T21:16:02.191Z,6.27
2018-08-24T21:18:30.192Z,3.27
2018-08-24T21:20:58.181Z,3.27
2018-08-24T21:23:26.178Z,3.37
2018-08-24T21:25:54.116Z,2.97
2018-08-24T21:28:22.062Z,4.30
2018-08-24T21:30:50.045Z,2.80
2018-08-24T21:33:18.014Z,3.57
2018-08-24T21:35:46.111Z,4.20
2018-08-24T21:38:14.127Z,3.13
2018-08-24T21:40:42.139Z,5.43
2018-08-24T21:43:10.115Z,7.97
2018-08-24T21:45:38.196Z,2.97
2018-08-24T21:48:06.166Z,3.10
2018-08-24T21:50:34.127Z,3.33
2018-08-24T21:53:02.244Z,3.30
2018-08-24T21:55:30.192Z,2.70
2018-08-24T21:57:58.220Z,3.17
2018-08-24T22:00:26.115Z,3.13
2018-08-24T22:02:54.071Z,3.73
2018-08-24T22:05:22.040Z,3.07
2018-08-24T22:07:50.007Z,3.30
2018-08-24T22:10:17.984Z,3.37
2018-08-24T22:12:46.150Z,3.43
2018-08-24T22:15:14.263Z,2.93
2018-08-24T22:17:42.649Z,2.63
2018-08-24T22:20:10.746Z,2.97
2018-08-24T22:22:38.705Z,2.27
2018-08-24T22:25:06.700Z,2.60
2018-08-24T22:27:34.702Z,2.83
2018-08-24T22:30:02.729Z,2.80
2018-08-24T22:32:30.633Z,2.30
2018-08-24T22:34:58.608Z,2.67
2018-08-24T22:37:26.600Z,2.33
2018-08-24T22:39:54.562Z,2.73
2018-08-24T22:42:22.513Z,2.17
2018-08-24T22:44:50.491Z,3.30
2018-08-24T22:47:18.463Z,2.37
2018-08-24T22:49:46.448Z,1.93
2018-08-24T22:52:14.401Z,2.40
2018-08-24T22:54:42.354Z,2.67
2018-08-24T22:57:10.319Z,2.40
2018-08-24T22:59:38.301Z,2.63
2018-08-24T23:02:06.297Z,2.53
2018-08-24T23:04:34.322Z,10.73
2018-08-24T23:07:02.409Z,3.90
2018-08-24T23:09:30.348Z,2.33
2018-08-24T23:11:58.318Z,2.10
2018-08-24T23:14:26.286Z,3.03
2018-08-24T23:16:54.230Z,2.13
2018-08-24T23:19:22.404Z,2.10
2018-08-24T23:21:50.304Z,2.40
2018-08-24T23:24:18.268Z,2.20
2018-08-24T23:26:46.242Z,2.13
2018-08-24T23:29:14.199Z,1.93
2018-08-24T23:31:42.174Z,1.83
2018-08-24T23:34:10.458Z,2.03
2018-08-24T23:36:38.368Z,1.70
2018-08-24T23:39:08.098Z,1.97
2018-08-24T23:41:36.063Z,4.97
2018-08-24T23:44:04.024Z,2.53
2018-08-24T23:46:32.058Z,1.80
2018-08-24T23:49:00.284Z,1.70
2018-08-24T23:51:28.295Z,2.00
2018-08-24T23:53:56.287Z,1.97
2018-08-24T23:56:24.237Z,2.53
2018-08-24T23:58:52.243Z,2.10
